sensor_id;sensor_type;location;lat;lon;timestamp;pressure;altitude;pressure_sealevel;temperature;humidity
54270;BME280;40181;51.560;13.000;2024-02-16T00:00:23;100693.78;;;9.73;100.00
54270;BME280;40181;51.560;13.000;2024-02-16T00:02:52;100691.31;;;9.82;100.00
54270;BME280;40181;51.560;13.000;2024-02-16T00:05:21;100681.53;;;9.74;100.00
54270;BME280;40181;51.560;13.000;2024-02-16T00:07:51;100683.16;;;9.67;100.00
54270;BME280;40181;51.560;13.000;2024-02-16T00:10:22;100685.66;;;9.61;100.00
54270;BME280;40181;51.560;13.000;2024-02-16T00:12:51;100683.06;;;9.62;100.00
54270;BME280;40181;51.560;13.000;2024-02-16T00:15:20;100692.91;;;9.74;100.00
54270;BME280;40181;51.560;13.000;2024-02-16T00:17:49;100686.72;;;9.72;100.00
54270;BME280;40181;51.560;13.000;2024-02-16T00:20:18;100683.44;;;9.82;100.00
54270;BME280;40181;51.560;13.000;2024-02-16T00:22:49;100696.31;;;9.68;100.00
54270;BME280;40181;51.560;13.000;2024-02-16T00:25:21;100686.91;;;9.80;100.00
54270;BME280;40181;51.560;13.000;2024-02-16T00:27:50;100684.41;;;9.86;100.00
54270;BME280;40181;51.560;13.000;2024-02-16T00:30:20;100690.53;;;9.88;100.00
54270;BME280;40181;51.560;13.000;2024-02-16T00:32:49;100691.06;;;9.70;100.00
54270;BME280;40181;51.560;13.000;2024-02-16T00:35:18;100680.63;;;9.72;100.00
54270;BME280;40181;51.560;13.000;2024-02-16T00:37:47;100680.97;;;9.90;100.00
54270;BME280;40181;51.560;13.000;2024-02-16T00:40:22;100685.91;;;9.73;100.00
54270;BME280;40181;51.560;13.000;2024-02-16T00:42:51;100691.16;;;9.73;100.00
54270;BME280;40181;51.560;13.000;2024-02-16T00:45:20;100689.84;;;9.52;100.00
54270;BME280;40181;51.560;13.000;2024-02-16T00:47:50;100697.09;;;9.64;100.00
54270;BME280;40181;51.560;13.000;2024-02-16T00:50:19;100703.16;;;9.62;100.00
54270;BME280;40181;51.560;13.000;2024-02-16T00:52:49;100698.66;;;9.56;100.00
54270;BME280;40181;51.560;13.000;2024-02-16T00:55:18;100703.16;;;9.62;100.00
54270;BME280;40181;51.560;13.000;2024-02-16T00:57:49;100696.72;;;9.46;100.00
54270;BME280;40181;51.560;13.000;2024-02-16T01:00:18;100695.97;;;9.51;100.00
54270;BME280;40181;51.560;13.000;2024-02-16T01:02:48;100698.75;;;9.61;100.00
54270;BME280;40181;51.560;13.000;2024-02-16T01:05:18;100696.69;;;9.43;100.00
54270;BME280;40181;51.560;13.000;2024-02-16T01:07:48;100674.75;;;9.40;100.00
54270;BME280;40181;51.560;13.000;2024-02-16T01:10:17;100685.25;;;9.40;100.00
54270;BME280;40181;51.560;13.000;2024-02-16T01:12:49;100685.88;;;9.27;100.00
54270;BME280;40181;51.560;13.000;2024-02-16T01:15:21;100685.88;;;9.27;100.00
54270;BME280;40181;51.560;13.000;2024-02-16T01:17:50;100680.84;;;9.38;100.00
54270;BME280;40181;51.560;13.000;2024-02-16T01:20:19;100671.84;;;9.26;100.00
54270;BME280;40181;51.560;13.000;2024-02-16T01:22:48;100678.81;;;9.24;100.00
54270;BME280;40181;51.560;13.000;2024-02-16T01:25:17;100679.53;;;9.17;100.00
54270;BME280;40181;51.560;13.000;2024-02-16T01:27:49;100678.91;;;9.27;100.00
54270;BME280;40181;51.560;13.000;2024-02-16T01:30:18;100669.00;;;9.14;100.00
54270;BME280;40181;51.560;13.000;2024-02-16T01:32:47;100669.66;;;9.04;100.00
54270;BME280;40181;51.560;13.000;2024-02-16T01:35:16;100662.13;;;9.19;100.00
54270;BME280;40181;51.560;13.000;2024-02-16T01:37:45;100661.75;;;9.01;100.00
54270;BME280;40181;51.560;13.000;2024-02-16T01:40:15;100667.69;;;8.93;100.00
54270;BME280;40181;51.560;13.000;2024-02-16T01:42:46;100665.22;;;9.01;100.00
54270;BME280;40181;51.560;13.000;2024-02-16T01:45:18;100658.25;;;9.02;100.00
54270;BME280;40181;51.560;13.000;2024-02-16T01:47:50;100657.88;;;8.83;100.00
54270;BME280;40181;51.560;13.000;2024-02-16T01:50:19;100650.00;;;8.83;100.00
54270;BME280;40181;51.560;13.000;2024-02-16T01:52:48;100642.88;;;8.77;100.00
54270;BME280;40181;51.560;13.000;2024-02-16T01:55:19;100642.66;;;8.68;100.00
54270;BME280;40181;51.560;13.000;2024-02-16T01:57:51;100649.06;;;8.81;100.00
54270;BME280;40181;51.560;13.000;2024-02-16T02:00:21;100656.97;;;8.82;100.00
54270;BME280;40181;51.560;13.000;2024-02-16T02:02:50;100646.38;;;8.78;100.00
54270;BME280;40181;51.560;13.000;2024-02-16T02:05:19;100655.09;;;8.77;100.00
54270;BME280;40181;51.560;13.000;2024-02-16T02:07:48;100655.25;;;8.83;100.00
54270;BME280;40181;51.560;13.000;2024-02-16T02:10:18;100656.75;;;8.73;100.00
54270;BME280;40181;51.560;13.000;2024-02-16T02:12:47;100641.38;;;8.89;100.00
54270;BME280;40181;51.560;13.000;2024-02-16T02:15:19;100643.06;;;8.85;100.00
54270;BME280;40181;51.560;13.000;2024-02-16T02:17:48;100636.56;;;8.67;100.00
54270;BME280;40181;51.560;13.000;2024-02-16T02:20:17;100645.53;;;8.79;100.00
54270;BME280;40181;51.560;13.000;2024-02-16T02:22:48;100630.31;;;8.61;100.00
54270;BME280;40181;51.560;13.000;2024-02-16T02:25:18;100634.59;;;8.57;100.00
54270;BME280;40181;51.560;13.000;2024-02-16T02:27:47;100643.81;;;8.42;100.00
54270;BME280;40181;51.560;13.000;2024-02-16T02:30:16;100628.34;;;8.52;100.00
54270;BME280;40181;51.560;13.000;2024-02-16T02:32:46;100629.06;;;8.46;100.00
54270;BME280;40181;51.560;13.000;2024-02-16T02:35:16;100626.06;;;8.67;100.00
54270;BME280;40181;51.560;13.000;2024-02-16T02:37:45;100621.66;;;8.65;100.00
54270;BME280;40181;51.560;13.000;2024-02-16T02:40:17;100624.09;;;8.57;100.00
54270;BME280;40181;51.560;13.000;2024-02-16T02:42:46;100615.75;;;8.75;100.00
54270;BME280;40181;51.560;13.000;2024-02-16T02:45:15;100611.94;;;8.59;100.00
54270;BME280;40181;51.560;13.000;2024-02-16T02:47:44;100608.16;;;8.49;100.00
54270;BME280;40181;51.560;13.000;2024-02-16T02:50:13;100622.56;;;8.65;100.00
54270;BME280;40181;51.560;13.000;2024-02-16T02:52:44;100610.22;;;8.61;100.00
54270;BME280;40181;51.560;13.000;2024-02-16T02:55:16;100623.16;;;8.53;100.00
54270;BME280;40181;51.560;13.000;2024-02-16T02:57:45;100607.22;;;8.45;100.00
54270;BME280;40181;51.560;13.000;2024-02-16T03:00:14;100619.75;;;8.57;100.00
54270;BME280;40181;51.560;13.000;2024-02-16T03:02:44;100616.91;;;8.50;100.00
54270;BME280;40181;51.560;13.000;2024-02-16T03:05:14;100608.13;;;8.46;100.00
54270;BME280;40181;51.560;13.000;2024-02-16T03:07:45;100605.22;;;8.34;100.00
54270;BME280;40181;51.560;13.000;2024-02-16T03:10:17;100608.97;;;8.45;100.00
54270;BME280;40181;51.560;13.000;2024-02-16T03:12:47;100607.78;;;8.32;100.00
54270;BME280;40181;51.560;13.000;2024-02-16T03:15:17;100598.53;;;8.47;100.00
54270;BME280;40181;51.560;13.000;2024-02-16T03:17:46;100606.41;;;8.48;100.00
54270;BME280;40181;51.560;13.000;2024-02-16T03:20:15;100612.78;;;8.60;100.00
54270;BME280;40181;51.560;13.000;2024-02-16T03:22:44;100609.47;;;8.65;100.00
54270;BME280;40181;51.560;13.000;2024-02-16T03:25:16;100602.50;;;8.29;100.00
54270;BME280;40181;51.560;13.000;2024-02-16T03:27:45;100602.34;;;8.23;100.00
54270;BME280;40181;51.560;13.000;2024-02-16T03:30:14;100595.66;;;8.36;100.00
54270;BME280;40181;51.560;13.000;2024-02-16T03:32:47;100611.81;;;8.54;100.00
54270;BME280;40181;51.560;13.000;2024-02-16T03:35:17;100614.84;;;8.36;100.00
54270;BME280;40181;51.560;13.000;2024-02-16T03:37:46;100607.31;;;8.50;100.00
54270;BME280;40181;51.560;13.000;2024-02-16T03:40:18;100613.06;;;8.34;100.00
54270;BME280;40181;51.560;13.000;2024-02-16T03:42:47;100612.06;;;8.28;100.00
54270;BME280;40181;51.560;13.000;2024-02-16T03:45:17;100609.59;;;8.35;100.00
54270;BME280;40181;51.560;13.000;2024-02-16T03:47:46;100612.00;;;8.25;100.00
54270;BME280;40181;51.560;13.000;2024-02-16T03:50:17;100603.38;;;8.29;100.00
54270;BME280;40181;51.560;13.000;2024-02-16T03:52:47;100600.19;;;8.43;100.00
54270;BME280;40181;51.560;13.000;2024-02-16T03:55:19;100612.91;;;8.27;100.00
54270;BME280;40181;51.560;13.000;2024-02-16T03:57:48;100606.66;;;8.21;100.00
54270;BME280;40181;51.560;13.000;2024-02-16T04:00:17;100597.53;;;8.05;100.00
54270;BME280;40181;51.560;13.000;2024-02-16T04:02:46;100603.25;;;8.25;100.00
54270;BME280;40181;51.560;13.000;2024-02-16T04:05:16;100595.25;;;8.19;100.00
54270;BME280;40181;51.560;13.000;2024-02-16T04:07:45;100589.72;;;8.43;100.00
54270;BME280;40181;51.560;13.000;2024-02-16T04:10:14;100584.28;;;8.35;100.00
54270;BME280;40181;51.560;13.000;2024-02-16T04:12:46;100589.44;;;8.30;100.00
54270;BME280;40181;51.560;13.000;2024-02-16T04:15:15;100583.53;;;8.39;100.00
54270;BME280;40181;51.560;13.000;2024-02-16T04:17:44;100592.25;;;8.40;100.00
54270;BME280;40181;51.560;13.000;2024-02-16T04:20:14;100584.94;;;8.25;100.00
54270;BME280;40181;51.560;13.000;2024-02-16T04:22:44;100578.84;;;8.24;100.00
54270;BME280;40181;51.560;13.000;2024-02-16T04:25:13;100596.25;;;8.24;100.00
54270;BME280;40181;51.560;13.000;2024-02-16T04:27:42;100580.63;;;8.27;100.00
54270;BME280;40181;51.560;13.000;2024-02-16T04:30:14;100585.25;;;8.39;100.00
54270;BME280;40181;51.560;13.000;2024-02-16T04:32:43;100585.34;;;8.42;100.00
54270;BME280;40181;51.560;13.000;2024-02-16T04:35:12;100586.91;;;8.34;100.00
54270;BME280;40181;51.560;13.000;2024-02-16T04:37:42;100578.09;;;8.30;100.00
54270;BME280;40181;51.560;13.000;2024-02-16T04:40:12;100584.19;;;8.29;100.00
54270;BME280;40181;51.560;13.000;2024-02-16T04:42:41;100588.63;;;8.33;100.00
54270;BME280;40181;51.560;13.000;2024-02-16T04:45:13;100584.88;;;8.22;100.00
54270;BME280;40181;51.560;13.000;2024-02-16T04:47:43;100584.22;;;8.32;100.00
54270;BME280;40181;51.560;13.000;2024-02-16T04:50:12;100582.97;;;8.14;100.00
54270;BME280;40181;51.560;13.000;2024-02-16T04:52:41;100583.22;;;8.27;100.00
54270;BME280;40181;51.560;13.000;2024-02-16T04:55:10;100579.84;;;8.31;100.00
54270;BME280;40181;51.560;13.000;2024-02-16T04:57:39;100568.31;;;8.23;100.00
54270;BME280;40181;51.560;13.000;2024-02-16T05:00:09;100566.94;;;8.39;100.00
54270;BME280;40181;51.560;13.000;2024-02-16T05:02:41;100566.88;;;8.36;100.00
54270;BME280;40181;51.560;13.000;2024-02-16T05:05:10;100566.16;;;8.43;100.00
54270;BME280;40181;51.560;13.000;2024-02-16T05:07:41;100567.63;;;8.30;100.00
54270;BME280;40181;51.560;13.000;2024-02-16T05:10:11;100558.06;;;8.32;100.00
54270;BME280;40181;51.560;13.000;2024-02-16T05:12:40;100563.56;;;8.44;100.00
54270;BME280;40181;51.560;13.000;2024-02-16T05:15:09;100568.59;;;8.35;100.00
54270;BME280;40181;51.560;13.000;2024-02-16T05:17:42;100559.00;;;8.36;100.00
54270;BME280;40181;51.560;13.000;2024-02-16T05:20:14;100566.56;;;8.60;100.00
54270;BME280;40181;51.560;13.000;2024-02-16T05:22:45;100559.88;;;8.36;100.00
54270;BME280;40181;51.560;13.000;2024-02-16T05:25:15;100558.22;;;8.40;100.00
54270;BME280;40181;51.560;13.000;2024-02-16T05:27:45;100575.03;;;8.50;100.00
54270;BME280;40181;51.560;13.000;2024-02-16T05:30:18;100570.94;;;8.61;100.00
54270;BME280;40181;51.560;13.000;2024-02-16T05:32:47;100574.38;;;8.58;100.00
54270;BME280;40181;51.560;13.000;2024-02-16T05:35:18;100550.94;;;8.65;100.00
54270;BME280;40181;51.560;13.000;2024-02-16T05:37:48;100559.41;;;8.51;100.00
54270;BME280;40181;51.560;13.000;2024-02-16T05:40:18;100561.78;;;8.42;100.00
54270;BME280;40181;51.560;13.000;2024-02-16T05:42:51;100552.50;;;8.56;100.00
54270;BME280;40181;51.560;13.000;2024-02-16T05:45:26;100550.25;;;8.34;100.00
54270;BME280;40181;51.560;13.000;2024-02-16T05:47:55;100548.94;;;8.51;100.00
54270;BME280;40181;51.560;13.000;2024-02-16T05:50:24;100534.75;;;8.44;100.00
54270;BME280;40181;51.560;13.000;2024-02-16T05:52:53;100551.59;;;8.54;100.00
54270;BME280;40181;51.560;13.000;2024-02-16T05:55:23;100551.56;;;8.53;100.00
54270;BME280;40181;51.560;13.000;2024-02-16T05:57:52;100548.66;;;8.40;100.00
54270;BME280;40181;51.560;13.000;2024-02-16T06:00:21;100544.75;;;8.61;100.00
54270;BME280;40181;51.560;13.000;2024-02-16T06:02:53;100544.94;;;8.70;100.00
54270;BME280;40181;51.560;13.000;2024-02-16T06:05:22;100551.06;;;8.71;100.00
54270;BME280;40181;51.560;13.000;2024-02-16T06:07:51;100539.03;;;8.81;100.00
54270;BME280;40181;51.560;13.000;2024-02-16T06:10:21;100544.31;;;8.82;100.00
54270;BME280;40181;51.560;13.000;2024-02-16T06:12:51;100543.47;;;8.83;100.00
54270;BME280;40181;51.560;13.000;2024-02-16T06:15:20;100545.75;;;8.66;100.00
54270;BME280;40181;51.560;13.000;2024-02-16T06:17:51;100542.28;;;8.67;100.00
54270;BME280;40181;51.560;13.000;2024-02-16T06:20:20;100546.63;;;8.67;100.00
54270;BME280;40181;51.560;13.000;2024-02-16T06:22:49;100553.00;;;8.80;100.00
54270;BME280;40181;51.560;13.000;2024-02-16T06:25:18;100549.69;;;8.49;100.00
54270;BME280;40181;51.560;13.000;2024-02-16T06:27:48;100545.84;;;8.72;100.00
54270;BME280;40181;51.560;13.000;2024-02-16T06:30:17;100552.69;;;8.66;100.00
54270;BME280;40181;51.560;13.000;2024-02-16T06:32:46;100546.19;;;8.47;100.00
54270;BME280;40181;51.560;13.000;2024-02-16T06:35:18;100540.38;;;8.60;100.00
54270;BME280;40181;51.560;13.000;2024-02-16T06:37:47;100536.31;;;8.75;100.00
54270;BME280;40181;51.560;13.000;2024-02-16T06:40:16;100554.66;;;8.76;100.00
54270;BME280;40181;51.560;13.000;2024-02-16T06:42:46;100547.84;;;8.83;100.00
54270;BME280;40181;51.560;13.000;2024-02-16T06:45:15;100544.16;;;8.75;100.00
54270;BME280;40181;51.560;13.000;2024-02-16T06:47:45;100551.00;;;8.68;100.00
54270;BME280;40181;51.560;13.000;2024-02-16T06:50:14;100560.75;;;8.75;100.00
54270;BME280;40181;51.560;13.000;2024-02-16T06:52:46;100552.31;;;8.49;100.00
54270;BME280;40181;51.560;13.000;2024-02-16T06:55:15;100560.19;;;8.49;100.00
54270;BME280;40181;51.560;13.000;2024-02-16T06:57:44;100541.41;;;8.68;100.00
54270;BME280;40181;51.560;13.000;2024-02-16T07:00:14;100541.38;;;8.65;100.00
54270;BME280;40181;51.560;13.000;2024-02-16T07:02:45;100545.75;;;8.66;100.00
54270;BME280;40181;51.560;13.000;2024-02-16T07:05:14;100548.66;;;8.80;100.00
54270;BME280;40181;51.560;13.000;2024-02-16T07:07:46;100554.66;;;8.76;100.00
54270;BME280;40181;51.560;13.000;2024-02-16T07:10:15;100558.13;;;8.74;100.00
54270;BME280;40181;51.560;13.000;2024-02-16T07:12:44;100553.78;;;8.76;100.00
54270;BME280;40181;51.560;13.000;2024-02-16T07:15:13;100561.75;;;8.80;100.00
54270;BME280;40181;51.560;13.000;2024-02-16T07:17:42;100561.72;;;8.79;100.00
54270;BME280;40181;51.560;13.000;2024-02-16T07:20:11;100560.97;;;8.86;100.00
54270;BME280;40181;51.560;13.000;2024-02-16T07:22:44;100558.19;;;8.77;100.00
54270;BME280;40181;51.560;13.000;2024-02-16T07:25:16;100561.84;;;8.85;100.00
54270;BME280;40181;51.560;13.000;2024-02-16T07:27:45;100566.13;;;8.81;100.00
54270;BME280;40181;51.560;13.000;2024-02-16T07:30:15;100552.00;;;8.73;100.00
54270;BME280;40181;51.560;13.000;2024-02-16T07:32:48;100554.88;;;8.87;100.00
54270;BME280;40181;51.560;13.000;2024-02-16T07:35:18;100550.19;;;8.70;100.00
54270;BME280;40181;51.560;13.000;2024-02-16T07:37:52;100543.13;;;8.68;100.00
54270;BME280;40181;51.560;13.000;2024-02-16T07:40:21;100541.47;;;8.70;100.00
54270;BME280;40181;51.560;13.000;2024-02-16T07:42:50;100538.06;;;8.76;100.00
54270;BME280;40181;51.560;13.000;2024-02-16T07:45:20;100538.84;;;8.71;100.00
54270;BME280;40181;51.560;13.000;2024-02-16T07:47:50;100536.47;;;8.82;100.00
54270;BME280;40181;51.560;13.000;2024-02-16T07:50:20;100538.19;;;8.82;100.00
54270;BME280;40181;51.560;13.000;2024-02-16T07:52:51;100532.13;;;8.83;100.00
54270;BME280;40181;51.560;13.000;2024-02-16T07:55:20;100534.84;;;8.89;100.00
54270;BME280;40181;51.560;13.000;2024-02-16T07:57:49;100535.00;;;8.97;100.00
54270;BME280;40181;51.560;13.000;2024-02-16T08:00:19;100532.44;;;9.00;100.00
54270;BME280;40181;51.560;13.000;2024-02-16T08:02:49;100534.19;;;9.01;100.00
54270;BME280;40181;51.560;13.000;2024-02-16T08:05:18;100522.09;;;9.06;100.00
54270;BME280;40181;51.560;13.000;2024-02-16T08:07:52;100536.88;;;9.03;100.00
54270;BME280;40181;51.560;13.000;2024-02-16T08:10:21;100532.00;;;9.23;100.00
54270;BME280;40181;51.560;13.000;2024-02-16T08:12:51;100522.38;;;9.23;100.00
54270;BME280;40181;51.560;13.000;2024-02-16T08:15:20;100521.53;;;9.23;100.00
54270;BME280;40181;51.560;13.000;2024-02-16T08:17:51;100532.75;;;9.17;100.00
54270;BME280;40181;51.560;13.000;2024-02-16T08:20:23;100526.63;;;9.17;100.00
54270;BME280;40181;51.560;13.000;2024-02-16T08:22:54;100522.59;;;9.34;100.00
54270;BME280;40181;51.560;13.000;2024-02-16T08:25:24;100526.66;;;9.18;100.00
54270;BME280;40181;51.560;13.000;2024-02-16T08:27:55;100523.16;;;9.18;100.00
54270;BME280;40181;51.560;13.000;2024-02-16T08:30:24;100511.25;;;9.35;100.00
54270;BME280;40181;51.560;13.000;2024-02-16T08:32:53;100521.94;;;9.48;100.00
54270;BME280;40181;51.560;13.000;2024-02-16T08:35:23;100519.31;;;9.48;100.00
54270;BME280;40181;51.560;13.000;2024-02-16T08:37:55;100517.09;;;9.73;100.00
54270;BME280;40181;51.560;13.000;2024-02-16T08:40:24;100526.88;;;9.81;100.00
54270;BME280;40181;51.560;13.000;2024-02-16T08:42:53;100532.22;;;9.88;100.00
54270;BME280;40181;51.560;13.000;2024-02-16T08:45:24;100525.50;;;10.07;100.00
54270;BME280;40181;51.560;13.000;2024-02-16T08:47:53;100527.19;;;10.03;100.00
54270;BME280;40181;51.560;13.000;2024-02-16T08:50:23;100527.47;;;10.22;100.00
54270;BME280;40181;51.560;13.000;2024-02-16T08:52:54;100524.81;;;10.20;100.00
54270;BME280;40181;51.560;13.000;2024-02-16T08:55:23;100522.34;;;10.31;100.00
54270;BME280;40181;51.560;13.000;2024-02-16T08:57:52;100521.53;;;10.34;100.00
54270;BME280;40181;51.560;13.000;2024-02-16T09:00:22;100516.53;;;10.52;100.00
54270;BME280;40181;51.560;13.000;2024-02-16T09:02:52;100517.59;;;10.65;100.00
54270;BME280;40181;51.560;13.000;2024-02-16T09:05:23;100515.00;;;10.70;100.00
54270;BME280;40181;51.560;13.000;2024-02-16T09:07:54;100512.41;;;10.73;100.00
54270;BME280;40181;51.560;13.000;2024-02-16T09:10:23;100520.47;;;10.89;100.00
54270;BME280;40181;51.560;13.000;2024-02-16T09:12:52;100527.53;;;10.93;100.00
54270;BME280;40181;51.560;13.000;2024-02-16T09:15:22;100515.41;;;11.06;98.07
54270;BME280;40181;51.560;13.000;2024-02-16T09:17:51;100519.13;;;11.28;97.09
54270;BME280;40181;51.560;13.000;2024-02-16T09:20:20;100520.97;;;11.35;96.08
54270;BME280;40181;51.560;13.000;2024-02-16T09:22:49;100522.91;;;11.54;95.84
54270;BME280;40181;51.560;13.000;2024-02-16T09:25:20;100511.50;;;11.58;93.54
54270;BME280;40181;51.560;13.000;2024-02-16T09:27:50;100526.50;;;11.67;93.34
54270;BME280;40181;51.560;13.000;2024-02-16T09:30:19;100523.03;;;11.72;93.40
54270;BME280;40181;51.560;13.000;2024-02-16T09:32:48;100516.00;;;11.67;92.05
54270;BME280;40181;51.560;13.000;2024-02-16T09:35:17;100516.00;;;11.73;91.27
54270;BME280;40181;51.560;13.000;2024-02-16T09:37:46;100516.94;;;11.76;91.18
54270;BME280;40181;51.560;13.000;2024-02-16T09:40:16;100513.44;;;11.82;90.93
54270;BME280;40181;51.560;13.000;2024-02-16T09:42:50;100526.56;;;11.74;91.36
54270;BME280;40181;51.560;13.000;2024-02-16T09:45:19;100511.78;;;11.92;91.21
54270;BME280;40181;51.560;13.000;2024-02-16T09:47:50;100511.81;;;12.00;90.59
54270;BME280;40181;51.560;13.000;2024-02-16T09:50:20;100520.44;;;11.75;91.54
54270;BME280;40181;51.560;13.000;2024-02-16T09:52:50;100522.41;;;12.04;90.94
54270;BME280;40181;51.560;13.000;2024-02-16T09:55:19;100517.19;;;12.06;90.92
54270;BME280;40181;51.560;13.000;2024-02-16T09:58:01;100522.34;;;12.00;91.08
54270;BME280;40181;51.560;13.000;2024-02-16T10:00:31;100528.63;;;12.11;91.45
54270;BME280;40181;51.560;13.000;2024-02-16T10:03:00;100525.06;;;12.04;90.27
54270;BME280;40181;51.560;13.000;2024-02-16T10:05:29;100521.69;;;12.26;90.10
54270;BME280;40181;51.560;13.000;2024-02-16T10:07:58;100511.22;;;12.34;89.71
54270;BME280;40181;51.560;13.000;2024-02-16T10:10:28;100525.31;;;12.45;90.29
54270;BME280;40181;51.560;13.000;2024-02-16T10:13:05;100519.13;;;12.41;90.62
54270;BME280;40181;51.560;13.000;2024-02-16T10:15:37;100524.44;;;12.43;89.64
54270;BME280;40181;51.560;13.000;2024-02-16T10:18:06;100523.63;;;12.63;91.21
54270;BME280;40181;51.560;13.000;2024-02-16T10:20:38;100531.53;;;12.58;90.70
54270;BME280;40181;51.560;13.000;2024-02-16T10:23:08;100524.50;;;12.60;90.70
54270;BME280;40181;51.560;13.000;2024-02-16T10:25:39;100517.47;;;12.61;91.15
54270;BME280;40181;51.560;13.000;2024-02-16T10:28:11;100518.34;;;12.61;91.40
54270;BME280;40181;51.560;13.000;2024-02-16T10:30:43;100519.28;;;12.74;91.25
54270;BME280;40181;51.560;13.000;2024-02-16T10:33:12;100522.81;;;12.78;90.62
54270;BME280;40181;51.560;13.000;2024-02-16T10:35:43;100514.03;;;12.83;90.66
54270;BME280;40181;51.560;13.000;2024-02-16T10:38:13;100528.94;;;12.75;91.46
54270;BME280;40181;51.560;13.000;2024-02-16T10:40:43;100526.34;;;12.84;90.33
54270;BME280;40181;51.560;13.000;2024-02-16T10:43:15;100543.06;;;12.91;89.15
54270;BME280;40181;51.560;13.000;2024-02-16T10:45:46;100542.22;;;13.00;90.57
54270;BME280;40181;51.560;13.000;2024-02-16T10:48:18;100552.75;;;12.94;88.34
54270;BME280;40181;51.560;13.000;2024-02-16T10:50:48;100544.78;;;12.81;89.42
54270;BME280;40181;51.560;13.000;2024-02-16T10:53:22;100543.06;;;12.90;88.73
54270;BME280;40181;51.560;13.000;2024-02-16T10:55:57;100543.94;;;12.92;87.74
54270;BME280;40181;51.560;13.000;2024-02-16T10:58:29;100550.06;;;12.80;88.82
54270;BME280;40181;51.560;13.000;2024-02-16T11:01:07;100554.50;;;12.95;88.61
54270;BME280;40181;51.560;13.000;2024-02-16T11:03:38;100551.00;;;13.02;88.55
54270;BME280;40181;51.560;13.000;2024-02-16T11:06:17;100543.97;;;13.01;89.65
54270;BME280;40181;51.560;13.000;2024-02-16T11:08:48;100546.59;;;12.89;92.17
54270;BME280;40181;51.560;13.000;2024-02-16T11:11:22;100540.47;;;13.02;91.03
54270;BME280;40181;51.560;13.000;2024-02-16T11:13:57;100536.09;;;13.06;92.44
54270;BME280;40181;51.560;13.000;2024-02-16T11:16:26;100532.53;;;12.97;92.26
54270;BME280;40181;51.560;13.000;2024-02-16T11:18:56;100536.09;;;13.18;92.86
54270;BME280;40181;51.560;13.000;2024-02-16T11:21:29;100527.34;;;13.30;91.57
54270;BME280;40181;51.560;13.000;2024-02-16T11:24:06;100530.91;;;13.45;89.07
54270;BME280;40181;51.560;13.000;2024-02-16T11:26:42;100530.06;;;13.57;86.44
54270;BME280;40181;51.560;13.000;2024-02-16T11:29:15;100525.63;;;13.80;86.08
54270;BME280;40181;51.560;13.000;2024-02-16T11:31:44;100528.28;;;13.96;86.33
54270;BME280;40181;51.560;13.000;2024-02-16T11:34:21;100531.78;;;14.04;84.41
54270;BME280;40181;51.560;13.000;2024-02-16T11:36:52;100527.38;;;14.08;84.23
54270;BME280;40181;51.560;13.000;2024-02-16T11:39:22;100524.69;;;14.20;76.06
54270;BME280;40181;51.560;13.000;2024-02-16T11:42:01;100518.50;;;14.42;72.76
54270;BME280;40181;51.560;13.000;2024-02-16T11:44:36;100517.56;;;14.52;71.77
54270;BME280;40181;51.560;13.000;2024-02-16T11:47:06;100515.75;;;14.66;71.01
54270;BME280;40181;51.560;13.000;2024-02-16T11:49:38;100513.09;;;14.80;70.21
54270;BME280;40181;51.560;13.000;2024-02-16T11:52:08;100519.28;;;14.65;71.51
54270;BME280;40181;51.560;13.000;2024-02-16T11:54:37;100513.09;;;14.79;70.15
54270;BME280;40181;51.560;13.000;2024-02-16T11:57:06;100509.53;;;14.80;70.69
54270;BME280;40181;51.560;13.000;2024-02-16T11:59:38;100508.66;;;14.86;70.10
54270;BME280;40181;51.560;13.000;2024-02-16T12:02:07;100501.56;;;14.89;71.17
54270;BME280;40181;51.560;13.000;2024-02-16T12:04:36;100507.81;;;14.77;70.71
54270;BME280;40181;51.560;13.000;2024-02-16T12:07:05;100503.31;;;14.95;70.67
54270;BME280;40181;51.560;13.000;2024-02-16T12:09:35;100506.84;;;14.89;70.99
54270;BME280;40181;51.560;13.000;2024-02-16T12:12:05;100508.63;;;14.93;71.38
54270;BME280;40181;51.560;13.000;2024-02-16T12:14:35;100501.59;;;14.86;70.59
54270;BME280;40181;51.560;13.000;2024-02-16T12:17:07;100507.78;;;14.87;70.82
54270;BME280;40181;51.560;13.000;2024-02-16T12:19:36;100505.97;;;14.92;69.62
54270;BME280;40181;51.560;13.000;2024-02-16T12:22:05;100499.84;;;14.87;69.06
54270;BME280;40181;51.560;13.000;2024-02-16T12:24:34;100498.03;;;14.95;69.19
54270;BME280;40181;51.560;13.000;2024-02-16T12:27:03;100506.03;;;14.84;69.29
54270;BME280;40181;51.560;13.000;2024-02-16T12:29:32;100506.03;;;14.76;68.90
54270;BME280;40181;51.560;13.000;2024-02-16T12:32:05;100501.63;;;14.83;67.91
54270;BME280;40181;51.560;13.000;2024-02-16T12:34:34;100503.28;;;15.00;68.80
54270;BME280;40181;51.560;13.000;2024-02-16T12:37:04;100500.69;;;14.93;68.75
54270;BME280;40181;51.560;13.000;2024-02-16T12:39:36;100504.16;;;14.99;69.37
54270;BME280;40181;51.560;13.000;2024-02-16T12:42:06;100489.19;;;14.93;69.52
54270;BME280;40181;51.560;13.000;2024-02-16T12:44:35;100502.50;;;14.80;69.73
54270;BME280;40181;51.560;13.000;2024-02-16T12:47:07;100500.72;;;14.83;69.51
54270;BME280;40181;51.560;13.000;2024-02-16T12:49:35;100498.91;;;14.96;69.94
54270;BME280;40181;51.560;13.000;2024-02-16T12:52:05;100500.72;;;14.84;69.04
54270;BME280;40181;51.560;13.000;2024-02-16T12:54:34;100488.34;;;14.92;70.14